sensor_id;sensor_type;location;lat;lon;timestamp;pressure;altitude;pressure_sealevel;temperature;humidity
77723;BME280;67811;42.656;23.394;2024-01-07T00:00:03;93579.66;;;6.76;82.13
77723;BME280;67811;42.656;23.394;2024-01-07T00:04:08;93583.59;;;6.52;83.78
77723;BME280;67811;42.656;23.394;2024-01-07T00:08:13;93573.97;;;6.85;82.67
77723;BME280;67811;42.656;23.394;2024-01-07T00:12:19;93566.63;;;6.61;84.01
77723;BME280;67811;42.656;23.394;2024-01-07T00:16:24;93557.38;;;6.85;84.53
77723;BME280;67811;42.656;23.394;2024-01-07T00:20:29;93539.53;;;7.93;81.71
77723;BME280;67811;42.656;23.394;2024-01-07T00:24:35;93535.31;;;7.72;80.05
77723;BME280;67811;42.656;23.394;2024-01-07T00:28:40;93540.81;;;7.64;80.66
77723;BME280;67811;42.656;23.394;2024-01-07T00:32:45;93526.00;;;7.63;79.84
77723;BME280;67811;42.656;23.394;2024-01-07T00:36:50;93507.97;;;7.60;80.01
77723;BME280;67811;42.656;23.394;2024-01-07T00:40:56;93507.56;;;7.56;80.17
77723;BME280;67811;42.656;23.394;2024-01-07T00:45:01;93503.09;;;7.57;80.49
77723;BME280;67811;42.656;23.394;2024-01-07T00:49:06;93492.81;;;7.16;80.23
77723;BME280;67811;42.656;23.394;2024-01-07T00:53:12;93483.22;;;6.68;80.08
77723;BME280;67811;42.656;23.394;2024-01-07T00:57:17;93468.53;;;6.19;81.83
77723;BME280;67811;42.656;23.394;2024-01-07T01:01:22;93480.94;;;6.32;81.91
77723;BME280;67811;42.656;23.394;2024-01-07T01:05:28;93481.06;;;6.11;82.11
77723;BME280;67811;42.656;23.394;2024-01-07T01:09:33;93478.44;;;6.11;82.61
77723;BME280;67811;42.656;23.394;2024-01-07T01:13:39;93463.47;;;6.11;83.42
77723;BME280;67811;42.656;23.394;2024-01-07T01:17:44;93450.78;;;6.28;82.58
77723;BME280;67811;42.656;23.394;2024-01-07T01:21:49;93440.03;;;6.29;82.38
77723;BME280;67811;42.656;23.394;2024-01-07T01:25:54;93427.47;;;6.18;83.39
77723;BME280;67811;42.656;23.394;2024-01-07T01:30:01;93419.81;;;6.30;83.42
77723;BME280;67811;42.656;23.394;2024-01-07T01:34:06;93415.38;;;6.37;82.77
77723;BME280;67811;42.656;23.394;2024-01-07T01:38:12;93401.59;;;6.28;83.46
77723;BME280;67811;42.656;23.394;2024-01-07T01:42:17;93391.25;;;6.20;84.54
77723;BME280;67811;42.656;23.394;2024-01-07T01:46:22;93383.19;;;6.28;85.09
77723;BME280;67811;42.656;23.394;2024-01-07T01:50:28;93362.97;;;6.49;84.27
77723;BME280;67811;42.656;23.394;2024-01-07T01:54:34;93345.16;;;6.38;84.74
77723;BME280;67811;42.656;23.394;2024-01-07T01:58:40;93348.81;;;6.50;85.52
77723;BME280;67811;42.656;23.394;2024-01-07T02:02:45;93341.31;;;6.60;85.59
77723;BME280;67811;42.656;23.394;2024-01-07T02:06:50;93348.19;;;6.28;85.81
77723;BME280;67811;42.656;23.394;2024-01-07T02:10:56;93356.22;;;7.26;87.85
77723;BME280;67811;42.656;23.394;2024-01-07T02:15:01;93344.22;;;7.88;84.69
77723;BME280;67811;42.656;23.394;2024-01-07T02:19:07;93322.84;;;8.03;83.37
77723;BME280;67811;42.656;23.394;2024-01-07T02:23:12;93310.81;;;8.07;81.32
77723;BME280;67811;42.656;23.394;2024-01-07T02:27:17;93278.72;;;7.40;80.43
77723;BME280;67811;42.656;23.394;2024-01-07T02:31:23;93268.13;;;7.02;81.34
77723;BME280;67811;42.656;23.394;2024-01-07T02:35:28;93250.97;;;6.79;82.51
77723;BME280;67811;42.656;23.394;2024-01-07T02:39:33;93262.91;;;6.89;82.29
77723;BME280;67811;42.656;23.394;2024-01-07T02:43:38;93271.91;;;6.54;83.61
77723;BME280;67811;42.656;23.394;2024-01-07T02:47:44;93275.47;;;6.80;84.01
77723;BME280;67811;42.656;23.394;2024-01-07T02:51:49;93276.53;;;6.66;83.85
77723;BME280;67811;42.656;23.394;2024-01-07T02:55:54;93277.34;;;6.66;85.89
77723;BME280;67811;42.656;23.394;2024-01-07T02:59:59;93286.78;;;7.00;87.34
77723;BME280;67811;42.656;23.394;2024-01-07T03:04:05;93287.59;;;7.01;85.82
77723;BME280;67811;42.656;23.394;2024-01-07T03:08:11;93270.94;;;7.20;86.18
77723;BME280;67811;42.656;23.394;2024-01-07T03:12:16;93269.19;;;7.84;84.36
77723;BME280;67811;42.656;23.394;2024-01-07T03:16:23;93270.66;;;8.05;83.58
77723;BME280;67811;42.656;23.394;2024-01-07T03:20:28;93280.28;;;8.24;82.89
77723;BME280;67811;42.656;23.394;2024-01-07T03:24:33;93292.97;;;8.09;83.86
77723;BME280;67811;42.656;23.394;2024-01-07T03:28:39;93294.06;;;8.26;83.26
77723;BME280;67811;42.656;23.394;2024-01-07T03:32:44;93288.78;;;8.26;83.89
77723;BME280;67811;42.656;23.394;2024-01-07T03:36:50;93283.16;;;8.48;85.10
77723;BME280;67811;42.656;23.394;2024-01-07T03:40:55;93285.41;;;8.44;86.00
77723;BME280;67811;42.656;23.394;2024-01-07T03:45:00;93282.78;;;8.44;85.78
77723;BME280;67811;42.656;23.394;2024-01-07T03:49:05;93269.41;;;8.39;86.97
77723;BME280;67811;42.656;23.394;2024-01-07T03:53:11;93264.81;;;8.28;88.50
77723;BME280;67811;42.656;23.394;2024-01-07T03:57:16;93270.84;;;8.10;87.58
77723;BME280;67811;42.656;23.394;2024-01-07T04:01:22;93265.19;;;7.75;86.31
77723;BME280;67811;42.656;23.394;2024-01-07T04:05:27;93262.13;;;7.39;86.47
77723;BME280;67811;42.656;23.394;2024-01-07T04:09:32;93259.91;;;7.30;87.10
77723;BME280;67811;42.656;23.394;2024-01-07T04:13:37;93247.22;;;7.13;87.47
77723;BME280;67811;42.656;23.394;2024-01-07T04:17:43;93246.47;;;7.00;88.58
77723;BME280;67811;42.656;23.394;2024-01-07T04:21:48;93248.69;;;7.09;88.25
77723;BME280;67811;42.656;23.394;2024-01-07T04:25:53;93239.22;;;6.89;88.97
77723;BME280;67811;42.656;23.394;2024-01-07T04:29:58;93238.06;;;6.71;89.65
77723;BME280;67811;42.656;23.394;2024-01-07T04:34:04;93222.06;;;6.73;90.14
77723;BME280;67811;42.656;23.394;2024-01-07T04:38:09;93227.72;;;6.70;90.60
77723;BME280;67811;42.656;23.394;2024-01-07T04:42:15;93214.56;;;6.76;91.85
77723;BME280;67811;42.656;23.394;2024-01-07T04:46:20;93216.53;;;6.81;90.72
77723;BME280;67811;42.656;23.394;2024-01-07T04:50:25;93232.41;;;6.61;92.04
77723;BME280;67811;42.656;23.394;2024-01-07T04:54:31;93237.66;;;6.68;91.36
77723;BME280;67811;42.656;23.394;2024-01-07T04:58:36;93239.63;;;6.85;91.26
77723;BME280;67811;42.656;23.394;2024-01-07T05:02:41;93231.00;;;6.65;91.50
77723;BME280;67811;42.656;23.394;2024-01-07T05:06:47;93229.22;;;6.32;92.55
77723;BME280;67811;42.656;23.394;2024-01-07T05:10:52;93238.94;;;6.12;93.86
77723;BME280;67811;42.656;23.394;2024-01-07T05:14:57;93223.16;;;6.12;94.18
77723;BME280;67811;42.656;23.394;2024-01-07T05:19:03;93217.47;;;6.15;94.09
77723;BME280;67811;42.656;23.394;2024-01-07T05:23:08;93212.63;;;6.19;94.29
77723;BME280;67811;42.656;23.394;2024-01-07T05:27:13;93240.94;;;6.50;91.54
77723;BME280;67811;42.656;23.394;2024-01-07T05:31:19;93228.00;;;6.28;92.96
77723;BME280;67811;42.656;23.394;2024-01-07T05:35:24;93220.31;;;6.20;94.06
77723;BME280;67811;42.656;23.394;2024-01-07T05:39:29;93225.19;;;6.23;94.24
77723;BME280;67811;42.656;23.394;2024-01-07T05:43:35;93217.50;;;6.22;94.15
77723;BME280;67811;42.656;23.394;2024-01-07T05:47:41;93232.03;;;6.31;94.15
77723;BME280;67811;42.656;23.394;2024-01-07T05:51:46;93240.13;;;6.29;92.93
77723;BME280;67811;42.656;23.394;2024-01-07T05:55:51;93243.19;;;6.00;94.18
77723;BME280;67811;42.656;23.394;2024-01-07T05:59:57;93254.94;;;6.11;95.40
77723;BME280;67811;42.656;23.394;2024-01-07T06:04:02;93240.97;;;5.97;96.25
77723;BME280;67811;42.656;23.394;2024-01-07T06:08:07;93241.97;;;5.96;96.75
77723;BME280;67811;42.656;23.394;2024-01-07T06:12:12;93237.25;;;5.71;97.78
77723;BME280;67811;42.656;23.394;2024-01-07T06:16:18;93214.03;;;5.75;98.75
77723;BME280;67811;42.656;23.394;2024-01-07T06:20:23;93229.59;;;5.76;98.59
77723;BME280;67811;42.656;23.394;2024-01-07T06:24:29;93220.72;;;5.77;99.76
77723;BME280;67811;42.656;23.394;2024-01-07T06:28:34;93219.31;;;5.95;99.14
77723;BME280;67811;42.656;23.394;2024-01-07T06:32:39;93227.00;;;5.96;98.48
77723;BME280;67811;42.656;23.394;2024-01-07T06:36:44;93234.09;;;6.02;98.77
77723;BME280;67811;42.656;23.394;2024-01-07T06:40:50;93229.63;;;6.10;97.96
77723;BME280;67811;42.656;23.394;2024-01-07T06:44:56;93248.03;;;6.10;97.18
77723;BME280;67811;42.656;23.394;2024-01-07T06:49:01;93244.81;;;6.27;97.19
77723;BME280;67811;42.656;23.394;2024-01-07T06:53:06;93261.59;;;6.33;96.87
77723;BME280;67811;42.656;23.394;2024-01-07T06:57:12;93261.97;;;6.50;96.62
77723;BME280;67811;42.656;23.394;2024-01-07T07:01:20;93245.59;;;6.34;95.58
77723;BME280;67811;42.656;23.394;2024-01-07T07:05:26;93256.75;;;6.43;96.84
77723;BME280;67811;42.656;23.394;2024-01-07T07:09:31;93255.47;;;6.59;97.21
77723;BME280;67811;42.656;23.394;2024-01-07T07:13:36;93242.06;;;6.80;96.41
77723;BME280;67811;42.656;23.394;2024-01-07T07:17:42;93239.53;;;7.12;92.50
77723;BME280;67811;42.656;23.394;2024-01-07T07:21:47;93223.00;;;6.92;94.35
77723;BME280;67811;42.656;23.394;2024-01-07T07:25:52;93223.31;;;7.15;94.06
77723;BME280;67811;42.656;23.394;2024-01-07T07:29:57;93238.16;;;7.03;94.28
77723;BME280;67811;42.656;23.394;2024-01-07T07:34:03;93246.38;;;7.20;95.10
77723;BME280;67811;42.656;23.394;2024-01-07T07:38:09;93232.19;;;7.27;93.56
77723;BME280;67811;42.656;23.394;2024-01-07T07:42:14;93243.25;;;7.43;91.69
77723;BME280;67811;42.656;23.394;2024-01-07T07:46:19;93236.88;;;7.57;91.52
77723;BME280;67811;42.656;23.394;2024-01-07T07:50:24;93232.94;;;7.73;91.11
77723;BME280;67811;42.656;23.394;2024-01-07T07:54:30;93225.72;;;7.93;89.42
77723;BME280;67811;42.656;23.394;2024-01-07T07:58:35;93221.16;;;8.32;87.38
77723;BME280;67811;42.656;23.394;2024-01-07T08:02:40;93215.91;;;8.50;87.58
77723;BME280;67811;42.656;23.394;2024-01-07T08:06:46;93221.91;;;8.64;86.37
77723;BME280;67811;42.656;23.394;2024-01-07T08:10:51;93221.03;;;8.88;85.51
77723;BME280;67811;42.656;23.394;2024-01-07T08:14:56;93210.81;;;9.10;85.27
77723;BME280;67811;42.656;23.394;2024-01-07T08:19:02;93219.47;;;9.17;83.71
77723;BME280;67811;42.656;23.394;2024-01-07T08:23:07;93217.91;;;9.28;83.09
77723;BME280;67811;42.656;23.394;2024-01-07T08:27:12;93218.41;;;9.37;82.99
77723;BME280;67811;42.656;23.394;2024-01-07T08:31:17;93221.13;;;9.48;82.59
77723;BME280;67811;42.656;23.394;2024-01-07T08:35:23;93215.91;;;9.42;81.64
77723;BME280;67811;42.656;23.394;2024-01-07T08:39:28;93217.09;;;9.28;82.40
77723;BME280;67811;42.656;23.394;2024-01-07T08:43:33;93218.66;;;9.35;83.07
77723;BME280;67811;42.656;23.394;2024-01-07T08:47:38;93210.72;;;9.65;83.09
77723;BME280;67811;42.656;23.394;2024-01-07T08:51:44;93208.81;;;9.72;81.92
77723;BME280;67811;42.656;23.394;2024-01-07T08:55:49;93200.91;;;9.96;81.25
77723;BME280;67811;42.656;23.394;2024-01-07T08:59:54;93207.34;;;10.42;78.45
77723;BME280;67811;42.656;23.394;2024-01-07T09:04:00;93202.97;;;10.82;78.01
77723;BME280;67811;42.656;23.394;2024-01-07T09:08:05;93196.81;;;11.05;76.78
77723;BME280;67811;42.656;23.394;2024-01-07T09:12:11;93208.00;;;10.96;76.44
77723;BME280;67811;42.656;23.394;2024-01-07T09:16:17;93208.03;;;10.72;78.52
77723;BME280;67811;42.656;23.394;2024-01-07T09:20:23;93209.59;;;10.97;78.37
77723;BME280;67811;42.656;23.394;2024-01-07T09:24:28;93205.09;;;11.49;77.43
77723;BME280;67811;42.656;23.394;2024-01-07T09:28:34;93195.19;;;11.45;75.04
77723;BME280;67811;42.656;23.394;2024-01-07T09:32:39;93210.66;;;10.84;78.44
77723;BME280;67811;42.656;23.394;2024-01-07T09:36:45;93195.09;;;10.99;78.19
77723;BME280;67811;42.656;23.394;2024-01-07T09:40:50;93188.63;;;12.21;71.74
77723;BME280;67811;42.656;23.394;2024-01-07T09:44:56;93175.69;;;13.41;67.05
77723;BME280;67811;42.656;23.394;2024-01-07T09:49:01;93176.47;;;14.87;59.52
77723;BME280;67811;42.656;23.394;2024-01-07T09:53:07;93177.16;;;15.72;55.05
77723;BME280;67811;42.656;23.394;2024-01-07T09:57:12;93184.19;;;16.44;52.82
77723;BME280;67811;42.656;23.394;2024-01-07T10:01:18;93177.50;;;16.93;50.15
77723;BME280;67811;42.656;23.394;2024-01-07T10:05:23;93183.91;;;16.97;49.86
77723;BME280;67811;42.656;23.394;2024-01-07T10:09:30;93184.69;;;16.11;50.42
77723;BME280;67811;42.656;23.394;2024-01-07T10:13:37;93179.69;;;14.94;54.79
77723;BME280;67811;42.656;23.394;2024-01-07T10:17:43;93170.94;;;14.56;56.37
77723;BME280;67811;42.656;23.394;2024-01-07T10:22:00;93157.91;;;14.65;55.97
77723;BME280;67811;42.656;23.394;2024-01-07T10:26:05;93152.28;;;14.61;56.48
77723;BME280;67811;42.656;23.394;2024-01-07T10:30:11;93142.88;;;14.48;56.56
77723;BME280;67811;42.656;23.394;2024-01-07T10:34:17;93137.81;;;14.15;57.50
77723;BME280;67811;42.656;23.394;2024-01-07T10:38:23;93136.03;;;14.26;57.32
77723;BME280;67811;42.656;23.394;2024-01-07T10:42:30;93123.47;;;14.53;57.41
77723;BME280;67811;42.656;23.394;2024-01-07T10:46:36;93126.00;;;14.75;57.06
77723;BME280;67811;42.656;23.394;2024-01-07T10:50:43;93110.69;;;14.55;56.36
77723;BME280;67811;42.656;23.394;2024-01-07T10:54:49;93113.25;;;14.08;56.85
77723;BME280;67811;42.656;23.394;2024-01-07T10:58:55;93144.72;;;13.57;57.92
77723;BME280;67811;42.656;23.394;2024-01-07T11:07:38;93123.63;;;12.62;61.09
77723;BME280;67811;42.656;23.394;2024-01-07T11:11:45;93123.75;;;12.73;60.77
77723;BME280;67811;42.656;23.394;2024-01-07T11:15:51;93123.34;;;11.92;63.88
77723;BME280;67811;42.656;23.394;2024-01-07T11:19:56;93127.41;;;11.66;63.88
77723;BME280;67811;42.656;23.394;2024-01-07T11:24:02;93140.66;;;12.11;62.80
77723;BME280;67811;42.656;23.394;2024-01-07T11:28:07;93124.91;;;11.88;64.65
77723;BME280;67811;42.656;23.394;2024-01-07T11:32:13;93123.84;;;12.05;63.82
77723;BME280;67811;42.656;23.394;2024-01-07T11:36:18;93117.41;;;11.84;64.98
77723;BME280;67811;42.656;23.394;2024-01-07T11:40:23;93114.91;;;11.95;65.35
77723;BME280;67811;42.656;23.394;2024-01-07T11:44:29;93120.06;;;12.01;63.05
77723;BME280;67811;42.656;23.394;2024-01-07T11:48:34;93124.16;;;11.47;65.76
77723;BME280;67811;42.656;23.394;2024-01-07T11:52:41;93126.53;;;11.60;65.82
77723;BME280;67811;42.656;23.394;2024-01-07T11:56:47;93127.50;;;11.71;64.21
77723;BME280;67811;42.656;23.394;2024-01-07T12:00:52;93126.38;;;11.67;63.88
77723;BME280;67811;42.656;23.394;2024-01-07T12:04:57;93130.44;;;11.57;64.06
77723;BME280;67811;42.656;23.394;2024-01-07T12:09:03;93120.59;;;11.41;64.60
77723;BME280;67811;42.656;23.394;2024-01-07T12:13:08;93125.41;;;11.27;64.56
77723;BME280;67811;42.656;23.394;2024-01-07T12:17:17;93116.66;;;11.15;65.12
77723;BME280;67811;42.656;23.394;2024-01-07T12:21:22;93119.41;;;11.20;64.70
77723;BME280;67811;42.656;23.394;2024-01-07T12:25:27;93125.22;;;11.17;64.11
77723;BME280;67811;42.656;23.394;2024-01-07T12:29:32;93130.94;;;10.86;65.17
77723;BME280;67811;42.656;23.394;2024-01-07T12:33:38;93132.81;;;10.73;66.75
77723;BME280;67811;42.656;23.394;2024-01-07T12:37:43;93134.88;;;10.83;66.27
77723;BME280;67811;42.656;23.394;2024-01-07T12:41:49;93126.94;;;10.83;65.98
77723;BME280;67811;42.656;23.394;2024-01-07T12:45:54;93136.09;;;10.92;66.50
77723;BME280;67811;42.656;23.394;2024-01-07T12:49:59;93130.53;;;10.77;67.85
77723;BME280;67811;42.656;23.394;2024-01-07T12:54:05;93138.22;;;10.78;67.90
77723;BME280;67811;42.656;23.394;2024-01-07T12:58:10;93138.56;;;10.70;69.18
77723;BME280;67811;42.656;23.394;2024-01-07T13:02:15;93143.63;;;10.84;68.49
77723;BME280;67811;42.656;23.394;2024-01-07T13:06:21;93149.72;;;10.84;67.78
77723;BME280;67811;42.656;23.394;2024-01-07T13:10:26;93152.63;;;10.59;69.41
77723;BME280;67811;42.656;23.394;2024-01-07T13:14:31;93151.03;;;10.46;70.16
77723;BME280;67811;42.656;23.394;2024-01-07T13:18:36;93145.06;;;10.51;70.14
77723;BME280;67811;42.656;23.394;2024-01-07T13:22:42;93143.56;;;10.55;69.38
77723;BME280;67811;42.656;23.394;2024-01-07T13:26:47;93144.38;;;10.55;69.12
77723;BME280;67811;42.656;23.394;2024-01-07T13:30:53;93143.31;;;10.57;69.30
77723;BME280;67811;42.656;23.394;2024-01-07T13:34:58;93155.84;;;10.73;67.88
77723;BME280;67811;42.656;23.394;2024-01-07T13:39:03;93154.25;;;10.60;68.04
77723;BME280;67811;42.656;23.394;2024-01-07T13:43:08;93155.97;;;10.43;69.19
77723;BME280;67811;42.656;23.394;2024-01-07T13:47:14;93151.84;;;10.35;68.84
77723;BME280;67811;42.656;23.394;2024-01-07T13:51:20;93148.47;;;10.16;69.60
77723;BME280;67811;42.656;23.394;2024-01-07T13:55:25;93155.47;;;10.11;71.77
77723;BME280;67811;42.656;23.394;2024-01-07T13:59:30;93144.69;;;10.12;71.39
77723;BME280;67811;42.656;23.394;2024-01-07T14:03:35;93153.66;;;10.23;71.80
77723;BME280;67811;42.656;23.394;2024-01-07T14:07:41;93154.38;;;10.30;71.50
77723;BME280;67811;42.656;23.394;2024-01-07T14:11:46;93150.69;;;10.43;69.96
77723;BME280;67811;42.656;23.394;2024-01-07T14:15:51;93164.16;;;10.41;70.15
77723;BME280;67811;42.656;23.394;2024-01-07T14:19:57;93164.16;;;10.41;70.05
77723;BME280;67811;42.656;23.394;2024-01-07T14:24:02;93168.31;;;10.37;71.17
77723;BME280;67811;42.656;23.394;2024-01-07T14:28:07;93168.91;;;10.39;71.04
77723;BME280;67811;42.656;23.394;2024-01-07T14:32:13;93173.72;;;10.42;70.55
77723;BME280;67811;42.656;23.394;2024-01-07T14:36:18;93169.81;;;10.45;71.09
77723;BME280;67811;42.656;23.394;2024-01-07T14:40:24;93161.75;;;10.40;73.44
77723;BME280;67811;42.656;23.394;2024-01-07T14:44:29;93176.97;;;10.44;73.62
77723;BME280;67811;42.656;23.394;2024-01-07T14:48:35;93184.09;;;10.44;72.89
77723;BME280;67811;42.656;23.394;2024-01-07T14:52:40;93177.66;;;10.40;72.24
77723;BME280;67811;42.656;23.394;2024-01-07T14:56:46;93183.06;;;10.33;74.94
77723;BME280;67811;42.656;23.394;2024-01-07T15:00:51;93195.13;;;10.29;75.02
77723;BME280;67811;42.656;23.394;2024-01-07T15:04:56;93190.63;;;10.29;77.05
77723;BME280;67811;42.656;23.394;2024-01-07T15:09:02;93196.50;;;10.32;78.72
77723;BME280;67811;42.656;23.394;2024-01-07T15:13:07;93199.59;;;10.17;79.88
77723;BME280;67811;42.656;23.394;2024-01-07T15:17:12;93211.97;;;10.04;79.38
77723;BME280;67811;42.656;23.394;2024-01-07T15:21:18;93211.00;;;9.87;80.30
77723;BME280;67811;42.656;23.394;2024-01-07T15:25:23;93221.25;;;9.84;83.42
77723;BME280;67811;42.656;23.394;2024-01-07T15:29:28;93214.56;;;9.81;82.86
77723;BME280;67811;42.656;23.394;2024-01-07T15:33:34;93219.00;;;9.69;82.64
77723;BME280;67811;42.656;23.394;2024-01-07T15:37:39;93211.03;;;9.57;83.63
77723;BME280;67811;42.656;23.394;2024-01-07T15:41:44;93205.25;;;9.48;83.98
77723;BME280;67811;42.656;23.394;2024-01-07T15:45:49;93204.91;;;9.45;85.10
77723;BME280;67811;42.656;23.394;2024-01-07T15:49:55;93207.31;;;9.46;85.00
77723;BME280;67811;42.656;23.394;2024-01-07T15:54:00;93206.59;;;9.39;85.03
77723;BME280;67811;42.656;23.394;2024-01-07T15:58:05;93212.91;;;9.38;84.56
77723;BME280;67811;42.656;23.394;2024-01-07T16:02:11;93218.16;;;9.57;83.76
77723;BME280;67811;42.656;23.394;2024-01-07T16:06:16;93226.94;;;9.69;83.24
77723;BME280;67811;42.656;23.394;2024-01-07T16:10:21;93224.13;;;9.52;83.77
77723;BME280;67811;42.656;23.394;2024-01-07T16:14:26;93221.88;;;9.37;84.42
77723;BME280;67811;42.656;23.394;2024-01-07T16:18:32;93221.88;;;9.37;84.58
77723;BME280;67811;42.656;23.394;2024-01-07T16:22:37;93220.78;;;9.27;85.24
77723;BME280;67811;42.656;23.394;2024-01-07T16:26:43;93221.16;;;9.12;85.96
77723;BME280;67811;42.656;23.394;2024-01-07T16:30:48;93227.13;;;9.07;86.36
77723;BME280;67811;42.656;23.394;2024-01-07T16:34:54;93224.63;;;9.12;86.32
77723;BME280;67811;42.656;23.394;2024-01-07T16:39:00;93230.78;;;9.06;86.27
77723;BME280;67811;42.656;23.394;2024-01-07T16:43:05;93234.53;;;8.98;86.86
77723;BME280;67811;42.656;23.394;2024-01-07T16:47:10;93231.31;;;8.96;87.23
77723;BME280;67811;42.656;23.394;2024-01-07T16:51:16;93238.31;;;8.84;87.78
77723;BME280;67811;42.656;23.394;2024-01-07T16:55:21;93237.38;;;8.79;88.45
77723;BME280;67811;42.656;23.394;2024-01-07T16:59:26;93241.69;;;8.73;89.70
77723;BME280;67811;42.656;23.394;2024-01-07T17:03:32;93248.16;;;8.77;91.16
77723;BME280;67811;42.656;23.394;2024-01-07T17:07:37;93253.22;;;8.79;91.07
77723;BME280;67811;42.656;23.394;2024-01-07T17:11:43;93266.00;;;8.82;91.03
77723;BME280;67811;42.656;23.394;2024-01-07T17:15:48;93275.69;;;8.88;91.15
77723;BME280;67811;42.656;23.394;2024-01-07T17:19:54;93267.97;;;8.86;91.04
77723;BME280;67811;42.656;23.394;2024-01-07T17:23:59;93279.28;;;8.93;90.07
77723;BME280;67811;42.656;23.394;2024-01-07T17:28:04;93279.88;;;9.14;88.72
77723;BME280;67811;42.656;23.394;2024-01-07T17:32:10;93279.44;;;8.98;89.12
77723;BME280;67811;42.656;23.394;2024-01-07T17:36:15;93285.00;;;8.90;89.93
77723;BME280;67811;42.656;23.394;2024-01-07T17:40:20;93282.16;;;8.92;90.68
77723;BME280;67811;42.656;23.394;2024-01-07T17:44:26;93289.78;;;9.00;89.72
77723;BME280;67811;42.656;23.394;2024-01-07T17:48:31;93294.69;;;8.96;89.85
77723;BME280;67811;42.656;23.394;2024-01-07T17:52:36;93296.16;;;8.92;90.30
77723;BME280;67811;42.656;23.394;2024-01-07T17:56:42;93301.72;;;8.84;91.17
77723;BME280;67811;42.656;23.394;2024-01-07T18:00:47;93299.91;;;8.85;91.33
77723;BME280;67811;42.656;23.394;2024-01-07T18:04:52;93310.88;;;8.82;91.97
77723;BME280;67811;42.656;23.394;2024-01-07T18:08:58;93310.66;;;8.83;92.68
77723;BME280;67811;42.656;23.394;2024-01-07T18:13:03;93318.22;;;8.80;92.23
77723;BME280;67811;42.656;23.394;2024-01-07T18:17:08;93324.31;;;8.80;92.76
77723;BME280;67811;42.656;23.394;2024-01-07T18:21:14;93322.25;;;8.82;92.37
77723;BME280;67811;42.656;23.394;2024-01-07T18:25:19;93331.78;;;8.83;92.83
77723;BME280;67811;42.656;23.394;2024-01-07T18:29:25;93336.25;;;8.83;93.42
77723;BME280;67811;42.656;23.394;2024-01-07T18:33:30;93335.78;;;8.92;93.58
77723;BME280;67811;42.656;23.394;2024-01-07T18:37:36;93342.59;;;9.00;93.87
77723;BME280;67811;42.656;23.394;2024-01-07T18:41:41;93344.97;;;9.08;92.99
77723;BME280;67811;42.656;23.394;2024-01-07T18:45:47;93353.41;;;8.98;93.55
77723;BME280;67811;42.656;23.394;2024-01-07T18:49:52;93355.72;;;8.88;93.47
77723;BME280;67811;42.656;23.394;2024-01-07T18:53:58;93362.25;;;8.86;93.59
77723;BME280;67811;42.656;23.394;2024-01-07T18:58:03;93355.38;;;8.85;93.60
77723;BME280;67811;42.656;23.394;2024-01-07T19:02:08;93354.53;;;8.84;93.64
77723;BME280;67811;42.656;23.394;2024-01-07T19:06:13;93365.09;;;8.84;93.57
77723;BME280;67811;42.656;23.394;2024-01-07T19:10:19;93363.47;;;8.83;92.42
77723;BME280;67811;42.656;23.394;2024-01-07T19:14:24;93368.56;;;8.85;92.15
77723;BME280;67811;42.656;23.394;2024-01-07T19:18:29;93369.06;;;8.75;92.72
77723;BME280;67811;42.656;23.394;2024-01-07T19:22:35;93374.41;;;8.62;93.24
77723;BME280;67811;42.656;23.394;2024-01-07T19:26:40;93385.38;;;8.65;93.78
77723;BME280;67811;42.656;23.394;2024-01-07T19:30:45;93385.38;;;8.65;92.55
77723;BME280;67811;42.656;23.394;2024-01-07T19:34:51;93378.63;;;8.69;92.97
77723;BME280;67811;42.656;23.394;2024-01-07T19:38:56;93378.25;;;8.66;93.89
77723;BME280;67811;42.656;23.394;2024-01-07T19:43:01;93384.72;;;8.70;92.83
77723;BME280;67811;42.656;23.394;2024-01-07T19:47:07;93386.81;;;8.61;92.61
77723;BME280;67811;42.656;23.394;2024-01-07T19:51:12;93390.69;;;8.59;92.94
77723;BME280;67811;42.656;23.394;2024-01-07T19:55:17;93391.13;;;8.56;93.42
77723;BME280;67811;42.656;23.394;2024-01-07T19:59:22;93388.91;;;8.53;93.54
77723;BME280;67811;42.656;23.394;2024-01-07T20:03:28;93390.34;;;8.49;93.69
77723;BME280;67811;42.656;23.394;2024-01-07T20:07:33;93395.50;;;8.37;94.27
77723;BME280;67811;42.656;23.394;2024-01-07T20:11:39;93392.72;;;8.25;94.15
77723;BME280;67811;42.656;23.394;2024-01-07T20:15:44;93403.00;;;8.33;93.92
77723;BME280;67811;42.656;23.394;2024-01-07T20:19:50;93410.38;;;8.18;94.81
77723;BME280;67811;42.656;23.394;2024-01-07T20:23:56;93400.09;;;8.10;95.71
77723;BME280;67811;42.656;23.394;2024-01-07T20:28:02;93403.47;;;8.24;94.36
77723;BME280;67811;42.656;23.394;2024-01-07T20:32:07;93406.94;;;8.17;95.46
77723;BME280;67811;42.656;23.394;2024-01-07T20:36:12;93412.25;;;8.11;94.55
77723;BME280;67811;42.656;23.394;2024-01-07T20:40:18;93420.09;;;7.79;97.00
77723;BME280;67811;42.656;23.394;2024-01-07T20:44:23;93421.38;;;7.57;99.10
77723;BME280;67811;42.656;23.394;2024-01-07T20:48:28;93412.81;;;7.81;98.68
77723;BME280;67811;42.656;23.394;2024-01-07T20:52:34;93420.25;;;7.98;97.11
77723;BME280;67811;42.656;23.394;2024-01-07T20:56:39;93421.91;;;7.85;97.20
77723;BME280;67811;42.656;23.394;2024-01-07T21:00:44;93432.44;;;7.85;97.49
77723;BME280;67811;42.656;23.394;2024-01-07T21:04:49;93436.38;;;7.70;98.21
77723;BME280;67811;42.656;23.394;2024-01-07T21:08:55;93436.00;;;7.53;100.00
77723;BME280;67811;42.656;23.394;2024-01-07T21:13:00;93436.63;;;7.42;100.00
77723;BME280;67811;42.656;23.394;2024-01-07T21:17:05;93436.97;;;7.72;100.00
77723;BME280;67811;42.656;23.394;2024-01-07T21:21:11;93443.59;;;7.87;97.70
77723;BME280;67811;42.656;23.394;2024-01-07T21:25:16;93442.25;;;7.72;97.94
77723;BME280;67811;42.656;23.394;2024-01-07T21:29:21;93442.47;;;7.57;98.97
77723;BME280;67811;42.656;23.394;2024-01-07T21:33:27;93453.03;;;7.50;100.00
77723;BME280;67811;42.656;23.394;2024-01-07T21:37:32;93450.19;;;7.52;100.00